sensor_id;sensor_type;location;lat;lon;timestamp;pressure;altitude;pressure_sealevel;temperature;humidity
35226;BME280;21813;49.686;21.766;2022-07-29T00:00:20;98686.75;;;16.57;94.47
35226;BME280;21813;49.686;21.766;2022-07-29T00:03:19;98690.66;;;16.53;94.70
35226;BME280;21813;49.686;21.766;2022-07-29T00:09:27;98706.47;;;16.53;95.10
35226;BME280;21813;49.686;21.766;2022-07-29T00:15:38;98701.50;;;16.50;95.03
35226;BME280;21813;49.686;21.766;2022-07-29T00:18:07;98688.81;;;16.45;95.39
35226;BME280;21813;49.686;21.766;2022-07-29T00:21:09;98720.72;;;16.60;95.85
35226;BME280;21813;49.686;21.766;2022-07-29T00:23:51;98697.16;;;16.41;96.06
35226;BME280;21813;49.686;21.766;2022-07-29T00:26:24;98711.22;;;16.49;96.08
35226;BME280;21813;49.686;21.766;2022-07-29T00:29:50;98686.53;;;16.32;96.34
35226;BME280;21813;49.686;21.766;2022-07-29T00:33:02;98712.03;;;16.50;96.58
35226;BME280;21813;49.686;21.766;2022-07-29T00:38:53;98728.09;;;16.47;96.37
35226;BME280;21813;49.686;21.766;2022-07-29T00:41:46;98709.63;;;16.39;96.44
35226;BME280;21813;49.686;21.766;2022-07-29T00:44:14;98711.28;;;16.40;96.30
35226;BME280;21813;49.686;21.766;2022-07-29T00:46:42;98715.56;;;16.41;96.27
35226;BME280;21813;49.686;21.766;2022-07-29T00:49:10;98692.25;;;16.28;96.33
35226;BME280;21813;49.686;21.766;2022-07-29T00:55:16;98700.84;;;16.30;96.14
35226;BME280;21813;49.686;21.766;2022-07-29T00:57:43;98695.34;;;16.23;96.31
35226;BME280;21813;49.686;21.766;2022-07-29T01:00:12;98688.72;;;16.19;96.15
35226;BME280;21813;49.686;21.766;2022-07-29T01:02:40;98698.41;;;16.19;96.62
35226;BME280;21813;49.686;21.766;2022-07-29T02:25:31;98702.72;;;15.75;97.16
35226;BME280;21813;49.686;21.766;2022-07-29T02:28:36;98700.41;;;15.72;97.37
35226;BME280;21813;49.686;21.766;2022-07-29T04:11:14;98654.91;;;15.34;97.24
35226;BME280;21813;49.686;21.766;2022-07-29T04:20:52;98648.34;;;15.58;96.39
35226;BME280;21813;49.686;21.766;2022-07-29T04:27:49;98642.59;;;15.72;95.54
35226;BME280;21813;49.686;21.766;2022-07-29T04:30:48;98671.44;;;15.99;95.03
35226;BME280;21813;49.686;21.766;2022-07-29T05:32:08;98653.31;;;18.10;81.66
35226;BME280;21813;49.686;21.766;2022-07-29T05:34:35;98656.44;;;18.22;81.97
35226;BME280;21813;49.686;21.766;2022-07-29T05:39:48;98660.41;;;18.34;79.52
35226;BME280;21813;49.686;21.766;2022-07-29T05:54:13;98665.63;;;19.70;73.31
35226;BME280;21813;49.686;21.766;2022-07-29T05:56:41;98656.44;;;19.58;72.29
35226;BME280;21813;49.686;21.766;2022-07-29T05:59:15;98672.66;;;19.55;72.54
35226;BME280;21813;49.686;21.766;2022-07-29T06:02:17;98669.34;;;19.53;73.13
35226;BME280;21813;49.686;21.766;2022-07-29T06:05:56;98674.47;;;19.55;73.34
35226;BME280;21813;49.686;21.766;2022-07-29T06:08:48;98651.88;;;19.36;73.21
35226;BME280;21813;49.686;21.766;2022-07-29T08:26:57;98675.97;;;23.65;59.80
35226;BME280;21813;49.686;21.766;2022-07-29T09:00:29;98663.91;;;24.36;56.39
35226;BME280;21813;49.686;21.766;2022-07-29T09:03:29;98658.59;;;24.43;55.74
35226;BME280;21813;49.686;21.766;2022-07-29T09:16:54;98624.56;;;24.38;55.71
35226;BME280;21813;49.686;21.766;2022-07-29T09:23:34;98635.84;;;24.86;53.83
35226;BME280;21813;49.686;21.766;2022-07-29T09:26:05;98626.19;;;24.85;53.27
35226;BME280;21813;49.686;21.766;2022-07-29T09:28:31;98634.81;;;24.94;53.19
35226;BME280;21813;49.686;21.766;2022-07-29T09:31:07;98623.31;;;24.93;52.64
35226;BME280;21813;49.686;21.766;2022-07-29T09:45:54;98630.16;;;25.60;52.98
35226;BME280;21813;49.686;21.766;2022-07-29T10:04:47;98619.84;;;25.64;51.82
35226;BME280;21813;49.686;21.766;2022-07-29T10:10:37;98614.31;;;25.65;52.22
35226;BME280;21813;49.686;21.766;2022-07-29T10:13:06;98610.44;;;25.61;51.56
35226;BME280;21813;49.686;21.766;2022-07-29T10:18:25;98592.34;;;25.63;52.46
35226;BME280;21813;49.686;21.766;2022-07-29T10:20:54;98599.31;;;25.64;50.95
35226;BME280;21813;49.686;21.766;2022-07-29T10:46:37;98584.03;;;25.84;50.36
35226;BME280;21813;49.686;21.766;2022-07-29T10:52:03;98604.88;;;26.01;50.90
35226;BME280;21813;49.686;21.766;2022-07-29T11:22:55;98575.47;;;26.32;49.69
35226;BME280;21813;49.686;21.766;2022-07-29T11:29:29;98563.88;;;26.45;48.27
35226;BME280;21813;49.686;21.766;2022-07-29T11:32:13;98558.94;;;26.42;47.78
35226;BME280;21813;49.686;21.766;2022-07-29T11:34:48;98556.44;;;26.47;48.12
35226;BME280;21813;49.686;21.766;2022-07-29T11:37:28;98555.13;;;26.56;47.87
35226;BME280;21813;49.686;21.766;2022-07-29T12:32:02;98514.09;;;29.62;41.31
35226;BME280;21813;49.686;21.766;2022-07-29T12:38:35;98508.25;;;30.10;39.82
35226;BME280;21813;49.686;21.766;2022-07-29T12:41:13;98514.34;;;29.89;41.34
35226;BME280;21813;49.686;21.766;2022-07-29T13:01:49;98467.06;;;31.25;36.78
35226;BME280;21813;49.686;21.766;2022-07-29T13:14:48;98451.44;;;28.77;42.63
35226;BME280;21813;49.686;21.766;2022-07-29T13:23:49;98483.09;;;28.28;44.25
35226;BME280;21813;49.686;21.766;2022-07-29T13:26:50;98471.66;;;28.21;43.32
35226;BME280;21813;49.686;21.766;2022-07-29T13:30:19;98445.88;;;27.97;43.33
35226;BME280;21813;49.686;21.766;2022-07-29T13:47:39;98445.72;;;27.80;45.10
35226;BME280;21813;49.686;21.766;2022-07-29T14:13:18;98421.91;;;27.49;45.43
35226;BME280;21813;49.686;21.766;2022-07-29T14:16:09;98432.66;;;27.60;45.92
35226;BME280;21813;49.686;21.766;2022-07-29T14:18:38;98426.69;;;27.58;45.72
35226;BME280;21813;49.686;21.766;2022-07-29T14:21:05;98409.34;;;27.49;45.86
35226;BME280;21813;49.686;21.766;2022-07-29T14:23:31;98409.69;;;27.53;45.69
35226;BME280;21813;49.686;21.766;2022-07-29T14:26:10;98392.81;;;27.52;45.16
35226;BME280;21813;49.686;21.766;2022-07-29T14:28:45;98419.63;;;27.64;45.71
35226;BME280;21813;49.686;21.766;2022-07-29T14:31:25;98421.25;;;27.65;45.82
35226;BME280;21813;49.686;21.766;2022-07-29T14:33:52;98407.63;;;27.66;45.63
35226;BME280;21813;49.686;21.766;2022-07-29T14:36:22;98384.56;;;27.54;45.44
35226;BME280;21813;49.686;21.766;2022-07-29T14:50:58;98383.50;;;27.66;45.05
35226;BME280;21813;49.686;21.766;2022-07-29T14:53:41;98384.09;;;27.68;45.54
35226;BME280;21813;49.686;21.766;2022-07-29T15:00:36;98368.59;;;27.59;45.51
35226;BME280;21813;49.686;21.766;2022-07-29T15:03:16;98373.41;;;27.68;45.66
35226;BME280;21813;49.686;21.766;2022-07-29T15:08:48;98378.63;;;27.63;45.17
35226;BME280;21813;49.686;21.766;2022-07-29T15:11:17;98369.53;;;27.53;45.20
35226;BME280;21813;49.686;21.766;2022-07-29T18:27:05;98424.03;;;25.45;54.78
35226;BME280;21813;49.686;21.766;2022-07-29T18:43:36;98453.09;;;25.66;54.76
35226;BME280;21813;49.686;21.766;2022-07-29T18:46:29;98457.53;;;25.72;53.28
35226;BME280;21813;49.686;21.766;2022-07-29T18:49:21;98452.28;;;26.58;51.50
35226;BME280;21813;49.686;21.766;2022-07-29T18:59:43;98478.94;;;28.02;47.99
35226;BME280;21813;49.686;21.766;2022-07-29T19:02:11;98479.41;;;27.88;48.07
35226;BME280;21813;49.686;21.766;2022-07-29T19:07:26;98471.09;;;27.36;50.04
35226;BME280;21813;49.686;21.766;2022-07-29T19:10:21;98477.50;;;26.44;53.26
35226;BME280;21813;49.686;21.766;2022-07-29T19:15:27;98482.97;;;25.05;59.63
35226;BME280;21813;49.686;21.766;2022-07-29T19:18:24;98456.06;;;24.43;62.03
35226;BME280;21813;49.686;21.766;2022-07-29T19:21:04;98481.50;;;23.93;64.73
35226;BME280;21813;49.686;21.766;2022-07-29T19:23:31;98484.31;;;23.58;66.76
35226;BME280;21813;49.686;21.766;2022-07-29T19:30:00;98469.38;;;23.44;67.83
35226;BME280;21813;49.686;21.766;2022-07-29T19:32:58;98460.19;;;23.66;66.81
35226;BME280;21813;49.686;21.766;2022-07-29T19:46:22;98473.31;;;23.81;66.53
35226;BME280;21813;49.686;21.766;2022-07-29T19:49:41;98474.41;;;23.32;68.66
35226;BME280;21813;49.686;21.766;2022-07-29T19:58:41;98477.88;;;22.72;71.73
35226;BME280;21813;49.686;21.766;2022-07-29T20:20:32;98487.13;;;22.83;71.46
35226;BME280;21813;49.686;21.766;2022-07-29T20:24:02;98490.56;;;23.24;69.32
35226;BME280;21813;49.686;21.766;2022-07-29T20:31:54;98515.56;;;22.89;70.91
35226;BME280;21813;49.686;21.766;2022-07-29T20:34:26;98506.66;;;22.69;72.47
35226;BME280;21813;49.686;21.766;2022-07-29T20:56:12;98540.41;;;21.77;80.68
35226;BME280;21813;49.686;21.766;2022-07-29T20:58:48;98537.25;;;21.67;82.14
35226;BME280;21813;49.686;21.766;2022-07-29T21:01:33;98535.72;;;21.57;83.41
35226;BME280;21813;49.686;21.766;2022-07-29T21:04:16;98560.22;;;21.59;85.02
35226;BME280;21813;49.686;21.766;2022-07-29T21:07:00;98555.16;;;21.43;85.99
35226;BME280;21813;49.686;21.766;2022-07-29T21:14:51;98603.75;;;21.29;89.27
35226;BME280;21813;49.686;21.766;2022-07-29T21:24:12;98570.44;;;20.83;91.20
35226;BME280;21813;49.686;21.766;2022-07-29T21:26:59;98571.44;;;20.82;91.98
35226;BME280;21813;49.686;21.766;2022-07-29T21:33:05;98558.84;;;20.69;93.62
35226;BME280;21813;49.686;21.766;2022-07-29T21:35:40;98552.09;;;20.66;93.93
35226;BME280;21813;49.686;21.766;2022-07-29T21:38:08;98538.56;;;20.61;94.41
35226;BME280;21813;49.686;21.766;2022-07-29T21:41:06;98552.72;;;20.68;94.41
35226;BME280;21813;49.686;21.766;2022-07-29T21:43:57;98523.13;;;20.50;94.70
35226;BME280;21813;49.686;21.766;2022-07-29T21:51:02;98511.97;;;20.55;94.12
35226;BME280;21813;49.686;21.766;2022-07-29T21:53:32;98508.88;;;20.51;93.86
35226;BME280;21813;49.686;21.766;2022-07-29T21:55:59;98524.06;;;20.57;93.70
35226;BME280;21813;49.686;21.766;2022-07-29T21:58:29;98496.63;;;20.50;92.78
35226;BME280;21813;49.686;21.766;2022-07-29T22:00:55;98481.22;;;20.39;92.00
35226;BME280;21813;49.686;21.766;2022-07-29T22:03:22;98468.69;;;20.33;92.02
35226;BME280;21813;49.686;21.766;2022-07-29T22:05:53;98480.84;;;20.42;91.97
35226;BME280;21813;49.686;21.766;2022-07-29T22:08:27;98479.03;;;20.43;91.38
35226;BME280;21813;49.686;21.766;2022-07-29T22:10:57;98457.47;;;20.31;90.94
35226;BME280;21813;49.686;21.766;2022-07-29T22:13:29;98447.22;;;20.28;90.40
35226;BME280;21813;49.686;21.766;2022-07-29T22:15:54;98441.56;;;20.31;90.61
35226;BME280;21813;49.686;21.766;2022-07-29T22:18:23;98431.78;;;20.17;90.31
35226;BME280;21813;49.686;21.766;2022-07-29T22:23:19;98404.50;;;20.02;90.13
35226;BME280;21813;49.686;21.766;2022-07-29T22:25:50;98442.63;;;20.22;89.79
35226;BME280;21813;49.686;21.766;2022-07-29T22:28:18;98430.88;;;20.10;90.60
35226;BME280;21813;49.686;21.766;2022-07-29T22:30:55;98444.19;;;20.16;91.01
35226;BME280;21813;49.686;21.766;2022-07-29T22:33:24;98440.09;;;20.14;90.99
35226;BME280;21813;49.686;21.766;2022-07-29T22:35:49;98426.94;;;20.06;91.69
35226;BME280;21813;49.686;21.766;2022-07-29T22:38:16;98419.72;;;20.00;91.67
35226;BME280;21813;49.686;21.766;2022-07-29T22:40:43;98413.75;;;19.98;91.66
35226;BME280;21813;49.686;21.766;2022-07-29T22:43:09;98402.66;;;19.88;92.67
35226;BME280;21813;49.686;21.766;2022-07-29T22:45:35;98394.22;;;19.84;93.46
35226;BME280;21813;49.686;21.766;2022-07-29T22:48:04;98391.13;;;19.80;93.26
35226;BME280;21813;49.686;21.766;2022-07-29T22:50:30;98368.41;;;19.71;93.03
35226;BME280;21813;49.686;21.766;2022-07-29T22:52:55;98365.47;;;19.66;92.33
35226;BME280;21813;49.686;21.766;2022-07-29T22:55:22;98368.13;;;19.66;92.74
35226;BME280;21813;49.686;21.766;2022-07-29T22:57:48;98376.06;;;19.66;92.25
35226;BME280;21813;49.686;21.766;2022-07-29T23:00:14;98380.63;;;19.72;92.19
35226;BME280;21813;49.686;21.766;2022-07-29T23:02:42;98367.84;;;19.61;92.12
35226;BME280;21813;49.686;21.766;2022-07-29T23:05:08;98378.38;;;19.69;92.42
35226;BME280;21813;49.686;21.766;2022-07-29T23:07:35;98350.69;;;19.57;92.51
35226;BME280;21813;49.686;21.766;2022-07-29T23:10:02;98365.69;;;19.65;93.05
35226;BME280;21813;49.686;21.766;2022-07-29T23:12:30;98357.91;;;19.63;93.34
35226;BME280;21813;49.686;21.766;2022-07-29T23:14:56;98338.22;;;19.51;93.81
35226;BME280;21813;49.686;21.766;2022-07-29T23:17:23;98334.91;;;19.49;94.35
35226;BME280;21813;49.686;21.766;2022-07-29T23:19:49;98349.69;;;19.58;94.71
35226;BME280;21813;49.686;21.766;2022-07-29T23:22:16;98349.13;;;19.48;94.88
35226;BME280;21813;49.686;21.766;2022-07-29T23:24:52;98344.66;;;19.49;95.48
35226;BME280;21813;49.686;21.766;2022-07-29T23:27:18;98358.63;;;19.57;95.40
35226;BME280;21813;49.686;21.766;2022-07-29T23:29:43;98346.41;;;19.56;95.38
35226;BME280;21813;49.686;21.766;2022-07-29T23:32:12;98340.31;;;19.56;95.50
35226;BME280;21813;49.686;21.766;2022-07-29T23:34:37;98353.34;;;19.57;95.60
35226;BME280;21813;49.686;21.766;2022-07-29T23:37:03;98343.22;;;19.46;95.51
35226;BME280;21813;49.686;21.766;2022-07-29T23:39:36;98330.66;;;19.40;95.92
35226;BME280;21813;49.686;21.766;2022-07-29T23:42:02;98358.34;;;19.52;96.30
35226;BME280;21813;49.686;21.766;2022-07-29T23:44:28;98335.28;;;19.46;96.71
35226;BME280;21813;49.686;21.766;2022-07-29T23:46:56;98318.81;;;19.36;97.13
35226;BME280;21813;49.686;21.766;2022-07-29T23:49:22;98327.38;;;19.38;97.35
35226;BME280;21813;49.686;21.766;2022-07-29T23:51:48;98322.69;;;19.48;97.68
35226;BME280;21813;49.686;21.766;2022-07-29T23:54:15;98322.22;;;19.45;98.00
35226;BME280;21813;49.686;21.766;2022-07-29T23:56:40;98327.66;;;19.43;97.87
35226;BME280;21813;49.686;21.766;2022-07-29T23:59:06;98336.03;;;19.55;98.04
